Time;durP1;ratioP1;P1;durP2;ratioP2;P2;SDS_P1;SDS_P2;PMS_P1;PMS_P2;Temp;Humidity;BMP_temperature;BMP_pressure;BME280_temperature;BME280_humidity;BME280_pressure;Samples;Min_cycle;Max_cycle;Signal;HPM_P1;HPM_P2
2023/11/16 00:02:01;;;;;;;44.40;41.23;;;9.30;91.80;;;;;;5077519;28;20178;-91
2023/11/16 00:04:27;;;;;;;45.70;42.33;;;9.30;91.60;;;;;;5077488;28;20194;-90
2023/11/16 00:06:53;;;;;;;46.43;43.13;;;9.30;91.60;;;;;;5076255;28;20222;-91
2023/11/16 00:09:18;;;;;;;47.17;43.70;;;9.30;91.60;;;;;;5076588;28;20179;-89
2023/11/16 00:11:44;;;;;;;46.63;43.27;;;9.30;91.70;;;;;;5076094;28;20229;-90
2023/11/16 00:14:10;;;;;;;45.17;41.53;;;9.30;92.00;;;;;;5076247;28;20187;-90
2023/11/16 00:16:37;;;;;;;43.23;40.43;;;9.20;92.10;;;;;;5076020;28;20706;-91
2023/11/16 00:19:04;;;;;;;43.17;40.17;;;9.20;92.00;;;;;;5076084;28;20187;-90
2023/11/16 00:21:30;;;;;;;43.57;40.20;;;9.30;91.70;;;;;;5075680;28;20542;-89
2023/11/16 00:23:57;;;;;;;45.30;42.17;;;9.30;91.60;;;;;;5075777;28;20199;-89
2023/11/16 00:26:23;;;;;;;44.07;41.23;;;9.30;91.20;;;;;;5075617;28;20191;-90
2023/11/16 00:28:54;;;;;;;46.73;42.90;;;9.30;91.10;;;;;;5075287;28;20167;-89
2023/11/16 00:31:20;;;;;;;44.47;41.30;;;9.30;91.30;;;;;;5076918;28;20175;-90
2023/11/16 00:33:46;;;;;;;51.23;47.77;;;9.30;91.40;;;;;;5075213;28;20177;-90
2023/11/16 00:36:12;;;;;;;28.07;25.53;;;9.30;91.10;;;;;;5075855;28;20211;-89
2023/11/16 00:38:38;;;;;;;28.17;25.90;;;9.30;90.80;;;;;;5075732;28;20171;-89
2023/11/16 00:41:08;;;;;;;48.53;44.60;;;9.20;90.80;;;;;;5075492;28;20228;-90
2023/11/16 00:43:34;;;;;;;50.10;46.47;;;9.20;90.60;;;;;;5075438;28;20360;-90
2023/11/16 00:46:01;;;;;;;29.03;26.80;;;9.20;90.60;;;;;;5075385;28;20282;-90
2023/11/16 00:48:27;;;;;;;26.47;24.47;;;9.20;90.80;;;;;;5076745;28;20187;-90
2023/11/16 00:50:52;;;;;;;27.70;25.20;;;9.20;90.50;;;;;;5076825;28;20171;-90
2023/11/16 00:53:18;;;;;;;46.83;43.50;;;9.20;90.40;;;;;;5076305;28;20171;-88
2023/11/16 00:55:43;;;;;;;50.40;46.50;;;9.20;90.00;;;;;;5076494;28;20212;-90
2023/11/16 00:58:09;;;;;;;28.13;25.73;;;9.30;89.80;;;;;;5075261;28;20182;-90
2023/11/16 01:00:35;;;;;;;25.33;23.33;;;9.20;89.70;;;;;;5075550;28;20175;-91
2023/11/16 01:03:03;;;;;;;24.77;22.87;;;9.20;89.50;;;;;;5074770;28;20179;-90
2023/11/16 01:05:29;;;;;;;25.30;23.20;;;9.20;89.20;;;;;;5075021;28;20702;-90
2023/11/16 01:07:54;;;;;;;26.43;24.27;;;9.30;89.20;;;;;;5075254;28;20195;-91
2023/11/16 01:10:24;;;;;;;25.30;23.13;;;9.20;89.60;;;;;;5075437;28;20249;-92
2023/11/16 01:12:53;;;;;;;26.33;24.20;;;9.20;90.10;;;;;;5075056;28;20167;-90
2023/11/16 01:15:20;;;;;;;26.97;24.47;;;9.10;90.50;;;;;;5074461;28;20214;-89
2023/11/16 01:17:47;;;;;;;24.67;22.50;;;9.00;91.00;;;;;;5076160;28;20215;-89
2023/11/16 01:20:23;;;;;;;25.30;23.50;;;8.90;91.30;;;;;;5074893;28;20179;-90
2023/11/16 01:23:02;;;;;;;23.57;21.70;;;8.90;91.70;;;;;;5074594;28;20163;-91
2023/11/16 01:25:30;;;;;;;23.70;21.53;;;8.90;92.00;;;;;;5075306;28;20184;-91
2023/11/16 01:27:59;;;;;;;22.97;21.23;;;8.90;92.20;;;;;;5075831;28;20167;-90
2023/11/16 01:30:25;;;;;;;25.27;23.10;;;8.80;92.20;;;;;;5074643;28;20643;-91
2023/11/16 01:32:51;;;;;;;22.50;20.60;;;8.80;92.10;;;;;;5074531;28;20312;-91
2023/11/16 01:35:21;;;;;;;24.40;22.63;;;8.80;91.90;;;;;;5073749;28;20188;-90
2023/11/16 01:37:47;;;;;;;24.17;22.40;;;8.80;92.00;;;;;;5075856;28;20187;-92
2023/11/16 01:40:13;;;;;;;25.73;23.33;;;8.80;91.90;;;;;;5073884;28;20171;-91
2023/11/16 01:42:38;;;;;;;25.33;22.87;;;8.70;92.00;;;;;;5074192;28;20600;-90
2023/11/16 01:45:05;;;;;;;24.00;21.77;;;8.70;91.80;;;;;;5074279;28;20275;-90
2023/11/16 01:47:31;;;;;;;25.03;22.83;;;8.80;91.80;;;;;;5073920;28;20191;-90
2023/11/16 01:49:56;;;;;;;41.43;38.70;;;8.70;91.80;;;;;;5074181;28;20172;-91
2023/11/16 01:52:23;;;;;;;42.73;39.47;;;8.70;91.50;;;;;;5074276;28;20174;-92
2023/11/16 01:54:48;;;;;;;41.73;38.57;;;8.70;91.60;;;;;;5074130;28;20270;-91
2023/11/16 01:57:14;;;;;;;42.40;39.40;;;8.70;91.80;;;;;;5074198;28;20647;-90
2023/11/16 01:59:41;;;;;;;40.67;37.67;;;8.60;91.60;;;;;;5073861;28;20274;-91
2023/11/16 02:02:10;;;;;;;42.40;39.57;;;8.70;91.60;;;;;;5074060;28;20182;-91
2023/11/16 02:04:37;;;;;;;41.13;38.40;;;8.70;91.40;;;;;;5074355;28;20199;-91
2023/11/16 02:07:05;;;;;;;43.67;40.30;;;8.70;91.10;;;;;;5073917;28;20195;-90
2023/11/16 02:09:31;;;;;;;42.00;39.40;;;8.80;90.80;;;;;;5073764;28;20761;-91
2023/11/16 02:11:56;;;;;;;45.00;41.90;;;8.70;91.10;;;;;;5073808;28;20673;-89
2023/11/16 02:14:22;;;;;;;45.17;41.87;;;8.80;91.00;;;;;;5073995;28;20175;-90
2023/11/16 02:16:47;;;;;;;43.57;40.40;;;8.70;91.40;;;;;;5073978;28;20246;-91
2023/11/16 02:19:33;;;;;;;42.80;39.70;;;8.60;92.00;;;;;;5075288;28;20608;-90
2023/11/16 02:22:01;;;;;;;41.30;38.73;;;8.60;92.50;;;;;;5074202;28;20183;-91
2023/11/16 02:24:27;;;;;;;42.47;39.17;;;8.60;92.60;;;;;;5073355;28;20237;-91
2023/11/16 02:26:53;;;;;;;41.53;38.50;;;8.60;92.70;;;;;;5073460;28;20195;-90
2023/11/16 02:29:19;;;;;;;43.60;40.70;;;8.50;92.80;;;;;;5073733;28;20180;-91
2023/11/16 02:31:44;;;;;;;22.67;20.90;;;8.50;92.90;;;;;;5074070;28;20220;-91
2023/11/16 02:34:10;;;;;;;24.80;22.50;;;8.50;93.00;;;;;;5073681;28;20171;-92
2023/11/16 02:36:36;;;;;;;39.30;36.40;;;8.50;93.20;;;;;;5075174;28;20203;-91
2023/11/16 02:39:03;;;;;;;37.90;35.50;;;8.50;93.40;;;;;;5074079;28;20179;-91
2023/11/16 02:41:34;;;;;;;34.90;32.70;;;8.50;93.60;;;;;;5074023;28;20261;-92
2023/11/16 02:44:00;;;;;;;23.50;21.53;;;8.40;93.90;;;;;;5075119;28;20187;-91
2023/11/16 02:46:25;;;;;;;23.47;21.30;;;8.40;94.10;;;;;;5073686;28;20253;-91
2023/11/16 02:48:51;;;;;;;40.27;37.47;;;8.30;94.10;;;;;;5073488;28;20207;-91
2023/11/16 02:51:16;;;;;;;43.57;40.13;;;8.30;93.90;;;;;;5073565;28;20168;-92
2023/11/16 02:53:43;;;;;;;50.93;47.20;;;8.30;93.90;;;;;;5073848;28;20643;-91
2023/11/16 02:56:11;;;;;;;30.33;23.40;;;8.20;93.60;;;;;;5073401;28;20565;-91
2023/11/16 02:58:41;;;;;;;26.17;24.13;;;8.20;93.60;;;;;;5073593;28;20179;-91
2023/11/16 03:01:06;;;;;;;23.80;22.07;;;8.10;93.20;;;;;;5073543;28;20239;-92
2023/11/16 03:03:34;;;;;;;23.43;21.53;;;8.10;92.90;;;;;;5074165;28;20199;-91
2023/11/16 03:05:59;;;;;;;25.00;23.20;;;8.10;92.80;;;;;;5073969;28;20750;-92
2023/11/16 03:08:25;;;;;;;24.87;23.00;;;7.90;92.70;;;;;;5074835;28;20250;-91
2023/11/16 03:10:50;;;;;;;24.83;23.13;;;7.70;92.10;;;;;;5073904;28;20168;-91
2023/11/16 03:13:16;;;;;;;26.60;24.97;;;7.50;91.90;;;;;;5074330;28;20235;-91
2023/11/16 03:15:42;;;;;;;23.27;21.70;;;7.40;92.00;;;;;;5073589;28;20189;-91
2023/11/16 03:18:08;;;;;;;23.03;20.97;;;7.30;91.50;;;;;;5073184;28;20172;-91
2023/11/16 03:20:34;;;;;;;20.70;19.20;;;7.30;91.50;;;;;;5074676;28;20254;-91
2023/11/16 03:23:01;;;;;;;22.80;21.43;;;7.30;91.30;;;;;;5075006;28;20163;-91
2023/11/16 03:25:26;;;;;;;22.20;20.57;;;7.20;91.00;;;;;;5076956;28;20199;-90
2023/11/16 03:27:52;;;;;;;20.73;19.43;;;7.20;90.70;;;;;;5076749;28;20667;-91
2023/11/16 03:30:17;;;;;;;20.63;19.33;;;7.20;90.40;;;;;;5077124;28;20172;-91
2023/11/16 03:32:45;;;;;;;23.57;21.87;;;7.10;90.10;;;;;;5076905;28;20229;-91
2023/11/16 03:35:13;;;;;;;20.53;19.33;;;7.10;90.30;;;;;;5078229;28;20662;-90
2023/11/16 03:37:42;;;;;;;21.77;20.17;;;7.10;90.50;;;;;;5076765;28;20560;-91
2023/11/16 03:40:08;;;;;;;21.23;20.03;;;7.10;90.70;;;;;;5076875;28;20265;-92
2023/11/16 03:42:34;;;;;;;22.73;21.03;;;7.00;90.90;;;;;;5077370;28;20183;-90
2023/11/16 03:44:59;;;;;;;22.80;21.30;;;7.00;91.20;;;;;;5077020;28;20317;-92
2023/11/16 03:47:25;;;;;;;39.13;36.63;;;6.90;91.00;;;;;;5078060;28;20245;-91
2023/11/16 03:49:50;;;;;;;39.20;36.90;;;6.80;90.80;;;;;;5076864;28;20179;-90
2023/11/16 03:52:16;;;;;;;38.67;35.93;;;6.80;90.40;;;;;;5076547;28;20317;-90
2023/11/16 03:54:44;;;;;;;36.37;34.13;;;6.70;90.00;;;;;;5077722;28;20179;-90
2023/11/16 03:57:11;;;;;;;36.97;34.60;;;6.70;89.70;;;;;;5076287;28;20629;-88
2023/11/16 03:59:37;;;;;;;34.23;31.77;;;6.60;89.60;;;;;;5076467;28;20179;-90
2023/11/16 04:02:04;;;;;;;33.30;31.20;;;6.70;89.00;;;;;;5076625;28;20209;-91
2023/11/16 04:04:30;;;;;;;34.53;32.33;;;6.60;88.80;;;;;;5076320;28;20237;-90
2023/11/16 04:06:56;;;;;;;34.37;32.00;;;6.60;89.00;;;;;;5076441;28;20195;-90
2023/11/16 04:09:21;;;;;;;32.13;30.03;;;6.60;89.20;;;;;;5077753;28;20180;-89
2023/11/16 04:11:47;;;;;;;32.77;30.77;;;6.60;89.50;;;;;;5077667;28;20195;-90
2023/11/16 04:14:15;;;;;;;33.23;31.00;;;6.50;89.80;;;;;;5077683;28;20187;-89
2023/11/16 04:16:41;;;;;;;33.27;31.23;;;6.50;89.70;;;;;;5075960;28;20324;-89
2023/11/16 04:19:07;;;;;;;33.10;31.10;;;6.40;89.50;;;;;;5077268;28;20555;-90
2023/11/16 04:21:36;;;;;;;30.43;28.20;;;6.40;89.60;;;;;;5076251;28;20269;-90
2023/11/16 04:24:08;;;;;;;32.90;30.97;;;6.40;89.70;;;;;;5076521;28;20239;-89
2023/11/16 04:26:37;;;;;;;41.43;39.03;;;6.30;90.10;;;;;;5076874;28;20278;-91
2023/11/16 04:29:05;;;;;;;18.73;17.63;;;6.30;90.10;;;;;;5076222;28;20175;-90
2023/11/16 04:31:31;;;;;;;18.30;16.90;;;6.30;90.30;;;;;;5076560;28;20175;-90
2023/11/16 04:33:57;;;;;;;31.23;29.30;;;6.20;90.50;;;;;;5075822;28;20553;-90
2023/11/16 04:36:28;;;;;;;33.83;31.80;;;6.20;90.50;;;;;;5075791;28;20203;-90
2023/11/16 04:38:55;;;;;;;36.47;34.37;;;6.20;90.50;;;;;;5077561;28;20151;-89
2023/11/16 04:41:25;;;;;;;17.37;16.37;;;6.20;90.40;;;;;;5077248;28;20533;-89
2023/11/16 04:43:51;;;;;;;17.40;16.40;;;6.00;89.90;;;;;;5075502;28;20266;-89
2023/11/16 04:46:18;;;;;;;33.57;31.57;;;6.10;89.90;;;;;;5077301;28;20199;-90
2023/11/16 04:48:43;;;;;;;34.00;32.10;;;6.00;89.80;;;;;;5077487;28;20187;-89
2023/11/16 04:51:17;;;;;;;39.73;37.43;;;6.00;89.70;;;;;;5075846;28;20634;-89
2023/11/16 04:53:43;;;;;;;19.50;18.10;;;6.00;89.90;;;;;;5077311;28;20154;-89
2023/11/16 04:56:09;;;;;;;18.53;17.47;;;6.10;90.00;;;;;;5076320;28;20199;-89
2023/11/16 04:58:35;;;;;;;19.00;17.90;;;6.00;90.30;;;;;;5075708;28;20172;-89
2023/11/16 05:01:00;;;;;;;19.93;18.57;;;6.00;90.60;;;;;;5076352;28;20183;-89
2023/11/16 05:03:27;;;;;;;18.63;17.53;;;6.00;90.80;;;;;;5077486;28;20175;-89
2023/11/16 05:05:52;;;;;;;20.10;18.70;;;6.00;91.10;;;;;;5076176;28;20206;-89
2023/11/16 05:08:19;;;;;;;19.00;17.67;;;5.90;91.00;;;;;;5075724;28;20557;-89
2023/11/16 05:10:47;;;;;;;20.30;18.97;;;5.90;90.90;;;;;;5077890;28;20171;-89
2023/11/16 05:13:13;;;;;;;20.47;18.60;;;6.00;91.00;;;;;;5075468;28;20179;-90
2023/11/16 05:15:40;;;;;;;18.90;17.80;;;6.00;91.00;;;;;;5075846;28;20262;-89
2023/11/16 05:18:05;;;;;;;21.77;20.07;;;6.00;90.90;;;;;;5075641;28;20385;-89
2023/11/16 05:20:31;;;;;;;21.53;20.13;;;6.00;91.00;;;;;;5075154;28;20234;-90
2023/11/16 05:22:57;;;;;;;21.23;19.90;;;6.10;91.10;;;;;;5075186;28;20270;-90
2023/11/16 05:25:23;;;;;;;20.63;19.13;;;6.00;91.10;;;;;;5076352;28;20566;-90
2023/11/16 05:27:48;;;;;;;19.40;18.10;;;5.90;90.60;;;;;;5075894;28;20286;-90
2023/11/16 05:30:14;;;;;;;19.83;18.63;;;5.80;90.00;;;;;;5074694;28;20174;-89
2023/11/16 05:32:39;;;;;;;19.20;17.63;;;5.80;89.50;;;;;;5075546;28;20173;-90
2023/11/16 05:35:05;;;;;;;19.50;18.20;;;5.80;89.50;;;;;;5074930;28;20275;-90
2023/11/16 05:37:30;;;;;;;33.20;31.20;;;5.80;89.50;;;;;;5075256;28;20202;-89
2023/11/16 05:39:56;;;;;;;36.53;34.33;;;5.80;89.50;;;;;;5075154;28;20179;-89
2023/11/16 05:42:21;;;;;;;35.43;33.03;;;5.80;89.30;;;;;;5076250;28;20232;-89
2023/11/16 05:44:48;;;;;;;35.47;33.07;;;5.70;89.00;;;;;;5076005;28;20199;-90
2023/11/16 05:47:14;;;;;;;32.90;30.90;;;5.80;88.90;;;;;;5074354;28;20224;-90
2023/11/16 05:49:39;;;;;;;35.80;33.53;;;5.70;88.70;;;;;;5075665;28;20178;-89
2023/11/16 05:52:06;;;;;;;32.03;29.93;;;5.70;88.50;;;;;;5074714;28;20175;-88
2023/11/16 05:54:32;;;;;;;36.30;33.67;;;5.70;88.60;;;;;;5074465;28;20175;-88
2023/11/16 05:56:58;;;;;;;34.13;31.80;;;5.70;88.70;;;;;;5074061;28;20191;-89
2023/11/16 05:59:23;;;;;;;35.50;33.40;;;5.60;88.60;;;;;;5074653;28;20634;-90
2023/11/16 06:01:49;;;;;;;33.57;31.37;;;5.60;88.70;;;;;;5074859;28;20224;-89
2023/11/16 06:04:15;;;;;;;36.40;34.17;;;5.70;88.70;;;;;;5075188;28;20191;-89
2023/11/16 06:06:42;;;;;;;34.73;32.50;;;5.70;88.40;;;;;;5075995;28;20315;-89
2023/11/16 06:09:09;;;;;;;34.60;32.40;;;5.50;88.50;;;;;;5075033;28;20530;-89
2023/11/16 06:11:34;;;;;;;34.23;32.07;;;5.60;88.60;;;;;;5074654;28;20617;-91
2023/11/16 06:14:00;;;;;;;36.67;34.37;;;5.60;88.70;;;;;;5074215;28;20242;-89
2023/11/16 06:16:26;;;;;;;44.73;42.10;;;5.70;88.70;;;;;;5074678;28;20553;-89
2023/11/16 06:18:57;;;;;;;21.60;20.13;;;5.70;88.70;;;;;;5074712;28;20216;-90
2023/11/16 06:21:23;;;;;;;22.87;21.43;;;5.70;88.70;;;;;;5074654;28;20167;-89
2023/11/16 06:23:48;;;;;;;38.03;35.63;;;5.70;88.70;;;;;;5075353;28;20203;-90
2023/11/16 06:26:14;;;;;;;40.93;38.43;;;5.70;88.70;;;;;;5074920;28;20206;-90
2023/11/16 06:28:40;;;;;;;47.90;45.00;;;5.70;88.80;;;;;;5074653;28;20175;-90
2023/11/16 06:31:05;;;;;;;22.07;20.67;;;5.70;88.70;;;;;;5074259;28;20172;-89
2023/11/16 06:33:32;;;;;;;24.17;22.27;;;5.70;88.70;;;;;;5074562;28;20182;-89
2023/11/16 06:35:57;;;;;;;39.27;36.87;;;5.70;88.80;;;;;;5073994;28;20210;-90
2023/11/16 06:38:23;;;;;;;39.97;37.47;;;5.70;88.80;;;;;;5074112;28;20176;-89
2023/11/16 06:40:48;;;;;;;30.43;28.57;;;5.70;88.80;;;;;;5074485;28;20639;-89
2023/11/16 06:43:15;;;;;;;22.77;20.90;;;5.70;88.50;;;;;;5074265;28;20187;-89
2023/11/16 06:45:40;;;;;;;22.23;20.77;;;5.60;88.30;;;;;;5074132;28;20256;-89
2023/11/16 06:48:07;;;;;;;21.80;20.17;;;5.70;88.40;;;;;;5073953;28;20179;-89
2023/11/16 06:50:34;;;;;;;21.37;19.67;;;5.80;88.50;;;;;;5074398;28;20265;-89
2023/11/16 06:53:05;;;;;;;22.03;20.57;;;5.80;88.60;;;;;;5074775;28;20590;-89
2023/11/16 06:55:34;;;;;;;22.70;21.30;;;5.80;88.60;;;;;;5074778;28;20179;-91
2023/11/16 06:58:00;;;;;;;23.20;21.50;;;5.90;88.60;;;;;;5076381;28;20180;-89
2023/11/16 07:00:27;;;;;;;22.13;20.73;;;5.80;88.60;;;;;;5078379;28;20222;-89
2023/11/16 07:02:55;;;;;;;23.03;21.07;;;5.80;88.60;;;;;;5078137;28;20206;-89
2023/11/16 07:05:21;;;;;;;24.03;22.13;;;5.70;88.60;;;;;;5078125;28;20203;-89
2023/11/16 07:07:46;;;;;;;21.67;20.23;;;5.80;88.70;;;;;;5079192;28;20198;-88
2023/11/16 07:10:12;;;;;;;21.03;19.83;;;5.70;88.60;;;;;;5078435;28;20176;-89
2023/11/16 07:12:42;;;;;;;20.83;19.53;;;5.70;88.50;;;;;;5077942;28;20609;-89
2023/11/16 07:15:10;;;;;;;21.70;20.07;;;5.70;88.50;;;;;;5078970;28;20168;-90
2023/11/16 07:17:37;;;;;;;19.93;18.43;;;5.70;88.40;;;;;;5078075;28;20195;-89
2023/11/16 07:20:05;;;;;;;19.67;18.37;;;5.60;88.30;;;;;;5078273;28;20270;-89
2023/11/16 07:22:31;;;;;;;21.73;20.40;;;5.70;88.40;;;;;;5077667;28;20549;-89
2023/11/16 07:24:56;;;;;;;37.93;35.27;;;5.60;88.20;;;;;;5077758;28;20195;-91
2023/11/16 07:27:22;;;;;;;32.93;30.63;;;5.70;88.10;;;;;;5078336;28;20199;-90
2023/11/16 07:29:48;;;;;;;32.47;30.40;;;5.70;88.00;;;;;;5077827;28;20195;-89
2023/11/16 07:32:15;;;;;;;32.13;30.03;;;5.70;87.90;;;;;;5077359;28;20186;-89
2023/11/16 07:34:41;;;;;;;32.17;30.17;;;5.60;87.50;;;;;;5078080;28;20556;-89
2023/11/16 07:37:07;;;;;;;35.67;33.53;;;5.70;87.40;;;;;;5077542;28;20242;-90
2023/11/16 07:39:33;;;;;;;35.87;33.67;;;5.70;87.30;;;;;;5077288;28;20188;-90
2023/11/16 07:41:59;;;;;;;35.30;33.10;;;5.70;87.20;;;;;;5077165;28;20611;-89
2023/11/16 07:44:25;;;;;;;37.57;35.07;;;5.70;87.20;;;;;;5077998;28;20320;-90
2023/11/16 07:46:51;;;;;;;36.67;34.03;;;5.70;87.20;;;;;;5077400;28;20213;-89
2023/11/16 07:49:17;;;;;;;35.50;33.20;;;5.80;87.10;;;;;;5077622;28;20631;-90
2023/11/16 07:51:43;;;;;;;36.07;33.73;;;5.70;87.30;;;;;;5077705;28;20182;-90
2023/11/16 07:54:11;;;;;;;35.30;33.07;;;5.80;87.30;;;;;;5078333;28;20168;-89
2023/11/16 07:56:38;;;;;;;37.57;35.03;;;5.70;87.10;;;;;;5077462;28;20320;-89
2023/11/16 07:59:04;;;;;;;34.13;32.03;;;5.70;87.30;;;;;;5077432;28;20176;-89
2023/11/16 08:01:39;;;;;;;39.00;36.67;;;5.70;87.50;;;;;;5077147;28;20278;-90
2023/11/16 08:04:05;;;;;;;47.27;44.30;;;5.70;87.70;;;;;;5077277;28;20182;-89
2023/11/16 08:06:35;;;;;;;22.03;20.63;;;5.70;87.90;;;;;;5077160;28;20685;-89
2023/11/16 08:09:00;;;;;;;20.77;19.37;;;5.70;88.00;;;;;;5077074;28;20217;-89
2023/11/16 08:11:26;;;;;;;36.03;33.63;;;5.70;87.80;;;;;;5076191;28;20175;-88
2023/11/16 08:13:52;;;;;;;38.30;35.83;;;5.70;87.80;;;;;;5076568;28;20183;-89
2023/11/16 08:16:21;;;;;;;42.20;39.40;;;5.70;87.50;;;;;;5076091;28;20199;-88
2023/11/16 08:18:48;;;;;;;21.70;20.20;;;5.60;87.40;;;;;;5076828;28;20643;-90
2023/11/16 08:21:14;;;;;;;20.60;19.00;;;5.60;87.30;;;;;;5076228;28;20223;-89
2023/11/16 08:23:45;;;;;;;35.20;32.67;;;5.60;87.30;;;;;;5076342;28;20270;-89
2023/11/16 08:26:15;;;;;;;35.93;33.63;;;5.60;87.20;;;;;;5076081;28;20207;-88
2023/11/16 08:28:43;;;;;;;42.33;39.63;;;5.50;87.20;;;;;;5076146;28;20175;-90
2023/11/16 08:31:12;;;;;;;21.83;20.10;;;5.60;87.30;;;;;;5076359;28;20172;-90
2023/11/16 08:33:41;;;;;;;20.70;19.40;;;5.60;87.20;;;;;;5076247;28;20262;-89
2023/11/16 08:36:08;;;;;;;35.20;33.00;;;5.60;87.20;;;;;;5077531;28;20210;-90
2023/11/16 08:38:39;;;;;;;33.10;31.00;;;5.70;87.10;;;;;;5075355;28;20599;-88
2023/11/16 08:41:05;;;;;;;40.80;38.30;;;5.70;87.10;;;;;;5076813;28;20269;-91
2023/11/16 08:43:33;;;;;;;19.30;17.83;;;5.70;86.90;;;;;;5077091;28;20175;-90
2023/11/16 08:45:59;;;;;;;19.77;18.57;;;5.70;86.80;;;;;;5076707;28;20268;-89
2023/11/16 08:48:32;;;;;;;34.43;32.33;;;5.70;86.50;;;;;;5077164;28;20317;-88
2023/11/16 08:51:05;;;;;;;33.90;31.80;;;5.70;86.70;;;;;;5075843;28;20202;-89
2023/11/16 08:53:35;;;;;;;41.37;38.97;;;5.70;86.60;;;;;;5075802;28;20163;-89
2023/11/16 08:56:05;;;;;;;27.23;25.43;;;5.70;86.60;;;;;;5074738;28;20199;-89
2023/11/16 08:58:31;;;;;;;26.87;25.00;;;5.70;86.80;;;;;;5075403;28;20179;-89
2023/11/16 09:01:05;;;;;;;25.60;23.97;;;5.70;86.90;;;;;;5077143;28;20171;-89
2023/11/16 09:03:33;;;;;;;25.03;23.33;;;5.60;86.70;;;;;;5075256;28;20198;-89
2023/11/16 09:06:05;;;;;;;24.97;23.27;;;5.70;87.00;;;;;;5074991;28;20246;-90
2023/11/16 09:08:34;;;;;;;26.23;24.40;;;5.60;86.70;;;;;;5075631;28;20171;-89
2023/11/16 09:11:00;;;;;;;23.80;22.23;;;5.70;86.80;;;;;;5075500;28;20183;-90
2023/11/16 09:13:26;;;;;;;24.93;23.37;;;5.60;86.40;;;;;;5075433;28;20175;-90
2023/11/16 09:15:52;;;;;;;24.33;22.83;;;5.60;86.30;;;;;;5074961;28;20206;-88
2023/11/16 09:18:17;;;;;;;23.40;22.00;;;5.60;86.30;;;;;;5073893;28;20183;-92
2023/11/16 09:20:48;;;;;;;24.33;22.67;;;5.60;86.30;;;;;;5074711;28;20190;-88
2023/11/16 09:23:14;;;;;;;24.70;23.10;;;5.60;86.30;;;;;;5073666;28;20167;-89
2023/11/16 09:25:40;;;;;;;24.47;22.57;;;5.60;86.10;;;;;;5074630;28;20575;-88
2023/11/16 09:28:06;;;;;;;24.67;22.87;;;5.60;85.80;;;;;;5073509;28;20174;-90
2023/11/16 09:30:34;;;;;;;25.23;23.57;;;5.60;85.80;;;;;;5074903;28;20181;-88
2023/11/16 09:33:01;;;;;;;24.23;22.63;;;5.70;85.80;;;;;;5073614;28;20617;-89
2023/11/16 09:35:27;;;;;;;25.00;23.33;;;5.70;85.80;;;;;;5073440;28;20195;-87
2023/11/16 09:37:56;;;;;;;40.27;37.77;;;5.70;85.80;;;;;;5075410;28;20233;-89
2023/11/16 09:40:28;;;;;;;40.07;37.17;;;5.80;85.80;;;;;;5077712;28;20752;-89
2023/11/16 09:42:57;;;;;;;44.33;41.33;;;5.80;86.10;;;;;;5076486;28;20216;-90
2023/11/16 09:45:27;;;;;;;41.70;39.00;;;6.00;86.20;;;;;;5074482;28;20207;-89
2023/11/16 09:48:12;;;;;;;41.67;38.77;;;6.10;86.20;;;;;;5075813;28;20184;-89
2023/11/16 09:50:44;;;;;;;36.47;34.03;;;6.20;85.90;;;;;;5076478;28;20147;-88
2023/11/16 09:53:14;;;;;;;38.00;35.60;;;6.30;85.80;;;;;;5076567;28;20174;-89
2023/11/16 09:55:44;;;;;;;41.57;38.87;;;6.40;85.80;;;;;;5075050;28;20704;-90
2023/11/16 09:58:17;;;;;;;40.60;37.77;;;6.30;85.60;;;;;;5075565;28;20251;-89
2023/11/16 10:00:48;;;;;;;40.43;37.90;;;6.40;85.60;;;;;;5075832;28;20198;-89
2023/11/16 10:03:20;;;;;;;40.60;38.03;;;6.30;85.30;;;;;;5075978;28;20577;-90
2023/11/16 10:05:46;;;;;;;40.17;37.57;;;6.30;85.40;;;;;;5074525;28;20191;-90
2023/11/16 10:08:15;;;;;;;45.73;42.73;;;6.40;85.30;;;;;;5074130;28;20220;-89
2023/11/16 10:11:00;;;;;;;50.57;47.40;;;6.30;85.10;;;;;;5074837;28;20167;-90
2023/11/16 10:13:27;;;;;;;49.77;46.63;;;6.30;85.10;;;;;;5074656;28;20246;-91
2023/11/16 10:15:53;;;;;;;48.87;45.83;;;6.30;85.10;;;;;;5073801;28;20206;-89
2023/11/16 10:18:20;;;;;;;51.60;48.20;;;6.30;85.00;;;;;;5073887;28;20211;-89
2023/11/16 10:20:45;;;;;;;45.47;42.77;;;6.30;85.10;;;;;;5074318;28;20623;-90
2023/11/16 10:23:14;;;;;;;46.90;44.10;;;6.30;85.00;;;;;;5075144;28;20209;-90
2023/11/16 10:25:40;;;;;;;25.50;23.90;;;6.20;84.60;;;;;;5075404;28;20246;-91
2023/11/16 10:28:17;;;;;;;26.90;25.00;;;6.20;84.60;;;;;;5073771;28;20647;-90
2023/11/16 10:30:46;;;;;;;44.33;41.43;;;6.20;84.70;;;;;;5075837;28;20253;-89
2023/11/16 10:33:16;;;;;;;43.33;40.60;;;6.20;84.80;;;;;;5076324;28;20167;-90
2023/11/16 10:35:46;;;;;;;48.93;45.93;;;6.20;84.70;;;;;;5078566;28;20194;-90
2023/11/16 10:38:12;;;;;;;24.53;22.90;;;6.30;84.70;;;;;;5079723;28;20554;-92
2023/11/16 10:40:42;;;;;;;24.60;23.00;;;6.40;84.50;;;;;;5080453;28;20171;-89
2023/11/16 10:43:09;;;;;;;41.90;39.20;;;6.60;84.70;;;;;;5079273;28;20175;-90
2023/11/16 10:45:35;;;;;;;41.17;38.57;;;6.70;84.40;;;;;;5079027;28;20199;-91
2023/11/16 10:48:02;;;;;;;48.90;45.90;;;6.80;84.30;;;;;;5078816;28;20673;-88
2023/11/16 10:50:29;;;;;;;24.77;23.17;;;6.80;83.80;;;;;;5078828;28;20163;-89
2023/11/16 10:52:56;;;;;;;27.13;25.17;;;6.90;83.70;;;;;;5078799;28;20538;-89
2023/11/16 10:55:29;;;;;;;24.87;23.17;;;6.90;83.90;;;;;;5079668;28;20262;-89
2023/11/16 10:58:01;;;;;;;24.20;22.43;;;7.10;83.70;;;;;;5077457;28;20282;-89
2023/11/16 11:00:32;;;;;;;25.27;23.57;;;7.00;83.60;;;;;;5077486;28;20183;-90
2023/11/16 11:02:59;;;;;;;26.37;24.67;;;7.00;83.60;;;;;;5077107;28;20168;-90
2023/11/16 11:05:29;;;;;;;24.60;22.83;;;6.80;83.70;;;;;;5076964;28;20575;-90
2023/11/16 11:07:57;;;;;;;27.07;25.03;;;6.80;84.00;;;;;;5077168;28;20195;-90
2023/11/16 11:10:27;;;;;;;26.63;24.83;;;6.80;84.10;;;;;;5083880;28;20206;-92
2023/11/16 11:12:56;;;;;;;27.30;25.50;;;6.70;84.40;;;;;;5086700;28;20229;-91
2023/11/16 11:15:34;;;;;;;26.30;24.53;;;6.70;84.50;;;;;;5085262;28;20202;-94
2023/11/16 11:18:00;;;;;;;25.70;24.00;;;7.00;85.10;;;;;;5090312;28;20167;-92
2023/11/16 11:20:40;;;;;;;25.43;23.83;;;7.30;84.70;;;;;;5088701;28;20179;-93
2023/11/16 11:23:15;;;;;;;25.80;24.10;;;7.40;84.20;;;;;;5088956;28;20174;-92
2023/11/16 11:25:41;;;;;;;24.63;23.03;;;7.60;83.80;;;;;;5089018;28;20191;-92
2023/11/16 11:28:08;;;;;;;25.17;23.47;;;7.80;83.20;;;;;;5088562;28;20194;-92
2023/11/16 11:30:37;;;;;;;23.80;22.20;;;7.70;82.80;;;;;;5088733;28;20173;-92
2023/11/16 11:33:07;;;;;;;22.73;21.03;;;7.70;82.50;;;;;;5088689;28;20182;-92
2023/11/16 11:35:37;;;;;;;27.67;25.87;;;7.70;82.20;;;;;;5087951;28;20197;-93
2023/11/16 11:38:22;;;;;;;26.67;24.87;;;7.80;82.40;;;;;;5086068;28;20183;-93
2023/11/16 11:40:56;;;;;;;28.17;26.30;;;8.00;82.20;;;;;;5087413;28;20175;-94
2023/11/16 11:43:24;;;;;;;25.03;23.33;;;7.90;81.60;;;;;;5086590;28;20194;-94
2023/11/16 11:45:50;;;;;;;27.23;25.43;;;8.10;81.20;;;;;;5087903;28;20198;-92
2023/11/16 11:48:18;;;;;;;26.50;24.77;;;8.20;80.80;;;;;;5085088;28;20262;-92
2023/11/16 11:50:44;;;;;;;27.20;25.30;;;8.00;80.10;;;;;;5085728;28;20179;-92
2023/11/16 11:53:16;;;;;;;27.17;25.37;;;7.80;80.80;;;;;;5087332;28;20226;-91
2023/11/16 11:55:47;;;;;;;27.67;25.70;;;7.70;80.20;;;;;;5087059;28;20167;-93
2023/11/16 11:58:13;;;;;;;27.17;25.37;;;7.40;79.80;;;;;;5084941;28;20164;-92
2023/11/16 12:00:49;;;;;;;28.03;26.03;;;7.40;80.70;;;;;;5085819;28;20184;-93
2023/11/16 12:03:16;;;;;;;26.90;25.10;;;7.40;80.80;;;;;;5084503;28;20167;-91
2023/11/16 12:05:43;;;;;;;27.87;25.97;;;7.30;81.00;;;;;;5082439;28;20203;-92
2023/11/16 12:08:10;;;;;;;43.43;40.63;;;7.20;80.70;;;;;;5083272;28;20544;-93
2023/11/16 12:10:37;;;;;;;41.17;38.47;;;7.10;81.10;;;;;;5084440;28;20167;-93
2023/11/16 12:13:04;;;;;;;42.30;39.60;;;7.10;81.10;;;;;;5081655;28;20171;-92
2023/11/16 12:15:30;;;;;;;41.17;38.57;;;7.20;81.30;;;;;;5082324;28;20184;-93
2023/11/16 12:18:05;;;;;;;26.93;25.17;;;7.20;80.80;;;;;;5083698;28;20227;-92
2023/11/16 12:20:32;;;;;;;26.13;24.10;;;7.00;81.20;;;;;;5081500;28;20163;-93
2023/11/16 12:23:00;;;;;;;24.80;23.20;;;7.00;81.50;;;;;;5081433;28;20171;-93
2023/11/16 12:25:27;;;;;;;37.73;35.33;;;7.10;81.50;;;;;;5086883;28;20218;-92
2023/11/16 12:27:52;;;;;;;45.93;43.03;;;7.20;80.80;;;;;;5087773;28;20195;-92
2023/11/16 12:30:18;;;;;;;25.93;24.23;;;7.10;80.90;;;;;;5091982;28;20171;-93
2023/11/16 12:32:45;;;;;;;24.37;22.77;;;7.10;81.00;;;;;;5091174;28;20672;-93
2023/11/16 12:35:14;;;;;;;24.70;23.10;;;7.00;81.10;;;;;;5090171;28;20183;-94
2023/11/16 12:37:43;;;;;;;41.00;38.40;;;7.20;81.30;;;;;;5090113;28;20206;-92